Benbrook, Texas
Current Conditions -  °F | °C
As of 8:52 PM on Friday 19 Dec 2014 (Local Time) from KNFW Reporting Station
Overcast Overcast  
Wind Chill: 50°   Ceiling: 1800
Heat Index: 50°   Visibility: 8mi
Dew Point: 42°   Wind: 8mph
Humidity: 74%   Direction: 350°N
Pressure: 30.26"   Gusts: NA
Location:  32.68°N, 97.45°W
Report Text: KNFW 200252Z 35007KT 8SM OVC018 10/06 A3026 RMK AO2 SLP229 T01000056 53013
Loading
Personal Weather Stations






























Interactive Weather Map New forecast layout! Learn more

10-Day Weather Forecast

Advertisements
Track Severe Weather on mobile